sensor_id;sensor_type;location;lat;lon;timestamp;temperature;humidity
56729;DHT22;42612;52.232;7.560;2023-04-29T00:01:27;15.30;63.00
56729;DHT22;42612;52.232;7.560;2023-04-29T00:03:53;15.30;63.10
56729;DHT22;42612;52.232;7.560;2023-04-29T00:06:19;15.30;63.10
56729;DHT22;42612;52.232;7.560;2023-04-29T00:08:45;15.30;63.00
56729;DHT22;42612;52.232;7.560;2023-04-29T00:11:11;15.30;62.90
56729;DHT22;42612;52.232;7.560;2023-04-29T00:13:37;15.30;62.90
56729;DHT22;42612;52.232;7.560;2023-04-29T00:16:06;15.20;62.80
56729;DHT22;42612;52.232;7.560;2023-04-29T00:18:32;15.20;62.90
56729;DHT22;42612;52.232;7.560;2023-04-29T00:20:58;15.20;62.90
56729;DHT22;42612;52.232;7.560;2023-04-29T00:23:24;15.10;62.90
56729;DHT22;42612;52.232;7.560;2023-04-29T00:25:49;15.10;63.10
56729;DHT22;42612;52.232;7.560;2023-04-29T00:28:17;15.10;63.30
56729;DHT22;42612;52.232;7.560;2023-04-29T00:30:43;15.00;63.20
56729;DHT22;42612;52.232;7.560;2023-04-29T00:33:09;15.00;63.30
56729;DHT22;42612;52.232;7.560;2023-04-29T00:35:35;15.00;63.30
56729;DHT22;42612;52.232;7.560;2023-04-29T00:38:01;14.90;63.40
56729;DHT22;42612;52.232;7.560;2023-04-29T00:40:27;14.90;63.50
56729;DHT22;42612;52.232;7.560;2023-04-29T00:42:53;14.90;63.60
56729;DHT22;42612;52.232;7.560;2023-04-29T00:45:19;14.90;63.60
56729;DHT22;42612;52.232;7.560;2023-04-29T00:47:44;14.90;63.70
56729;DHT22;42612;52.232;7.560;2023-04-29T00:50:10;14.90;63.60
56729;DHT22;42612;52.232;7.560;2023-04-29T00:52:37;14.90;63.60
56729;DHT22;42612;52.232;7.560;2023-04-29T00:55:04;14.90;63.80
56729;DHT22;42612;52.232;7.560;2023-04-29T00:57:30;14.90;64.10
56729;DHT22;42612;52.232;7.560;2023-04-29T00:59:59;14.90;63.50
56729;DHT22;42612;52.232;7.560;2023-04-29T01:02:25;14.80;63.60
56729;DHT22;42612;52.232;7.560;2023-04-29T01:04:51;14.80;63.60
56729;DHT22;42612;52.232;7.560;2023-04-29T01:07:25;14.80;63.70
56729;DHT22;42612;52.232;7.560;2023-04-29T01:10:19;14.80;64.10
56729;DHT22;42612;52.232;7.560;2023-04-29T01:13:06;14.80;64.50
56729;DHT22;42612;52.232;7.560;2023-04-29T01:15:48;14.80;64.20
56729;DHT22;42612;52.232;7.560;2023-04-29T01:18:28;14.80;64.10
56729;DHT22;42612;52.232;7.560;2023-04-29T01:20:57;14.80;63.90
56729;DHT22;42612;52.232;7.560;2023-04-29T01:23:27;14.80;63.90
56729;DHT22;42612;52.232;7.560;2023-04-29T01:25:54;14.80;64.20
56729;DHT22;42612;52.232;7.560;2023-04-29T01:40:21;14.90;64.80
56729;DHT22;42612;52.232;7.560;2023-04-29T01:43:02;14.90;64.60
56729;DHT22;42612;52.232;7.560;2023-04-29T01:45:30;14.90;64.40
56729;DHT22;42612;52.232;7.560;2023-04-29T01:47:58;15.00;64.00
56729;DHT22;42612;52.232;7.560;2023-04-29T01:50:24;15.00;64.00
56729;DHT22;42612;52.232;7.560;2023-04-29T01:52:49;14.90;63.90
56729;DHT22;42612;52.232;7.560;2023-04-29T01:55:15;15.00;63.80
56729;DHT22;42612;52.232;7.560;2023-04-29T01:57:41;15.00;63.80
56729;DHT22;42612;52.232;7.560;2023-04-29T02:00:07;15.00;63.90
56729;DHT22;42612;52.232;7.560;2023-04-29T02:02:33;15.00;63.90
56729;DHT22;42612;52.232;7.560;2023-04-29T02:04:59;15.00;63.80
56729;DHT22;42612;52.232;7.560;2023-04-29T02:07:25;15.00;63.70
56729;DHT22;42612;52.232;7.560;2023-04-29T02:09:50;15.00;63.70
56729;DHT22;42612;52.232;7.560;2023-04-29T02:12:16;14.90;63.60
56729;DHT22;42612;52.232;7.560;2023-04-29T02:14:42;14.90;63.60
56729;DHT22;42612;52.232;7.560;2023-04-29T02:17:08;14.90;63.60
56729;DHT22;42612;52.232;7.560;2023-04-29T02:19:33;14.90;63.60
56729;DHT22;42612;52.232;7.560;2023-04-29T02:21:59;14.90;63.60
56729;DHT22;42612;52.232;7.560;2023-04-29T02:24:25;14.90;63.60
56729;DHT22;42612;52.232;7.560;2023-04-29T02:26:51;14.90;63.60
56729;DHT22;42612;52.232;7.560;2023-04-29T02:29:17;14.90;63.60
56729;DHT22;42612;52.232;7.560;2023-04-29T02:31:45;14.90;63.60
56729;DHT22;42612;52.232;7.560;2023-04-29T02:34:11;14.90;63.60
56729;DHT22;42612;52.232;7.560;2023-04-29T02:36:37;14.90;63.60
56729;DHT22;42612;52.232;7.560;2023-04-29T02:39:02;14.90;63.60
56729;DHT22;42612;52.232;7.560;2023-04-29T02:41:28;14.90;63.50
56729;DHT22;42612;52.232;7.560;2023-04-29T02:43:54;14.90;63.50
56729;DHT22;42612;52.232;7.560;2023-04-29T02:46:20;14.90;63.40
56729;DHT22;42612;52.232;7.560;2023-04-29T02:48:45;14.90;63.40
56729;DHT22;42612;52.232;7.560;2023-04-29T02:51:11;14.90;63.30
56729;DHT22;42612;52.232;7.560;2023-04-29T02:53:37;14.90;63.20
56729;DHT22;42612;52.232;7.560;2023-04-29T02:56:03;14.90;63.20
56729;DHT22;42612;52.232;7.560;2023-04-29T02:58:29;14.90;63.90
56729;DHT22;42612;52.232;7.560;2023-04-29T03:00:55;14.90;63.20
56729;DHT22;42612;52.232;7.560;2023-04-29T03:03:20;14.90;63.20
56729;DHT22;42612;52.232;7.560;2023-04-29T03:05:47;14.80;63.10
56729;DHT22;42612;52.232;7.560;2023-04-29T03:08:13;14.80;63.10
56729;DHT22;42612;52.232;7.560;2023-04-29T03:10:38;14.80;63.10
56729;DHT22;42612;52.232;7.560;2023-04-29T03:13:04;14.80;63.10
56729;DHT22;42612;52.232;7.560;2023-04-29T03:15:30;14.80;63.10
56729;DHT22;42612;52.232;7.560;2023-04-29T03:17:55;14.80;63.10
56729;DHT22;42612;52.232;7.560;2023-04-29T03:20:21;14.80;63.10
56729;DHT22;42612;52.232;7.560;2023-04-29T03:22:47;14.70;62.90
56729;DHT22;42612;52.232;7.560;2023-04-29T03:25:13;14.70;62.90
56729;DHT22;42612;52.232;7.560;2023-04-29T03:27:38;14.60;62.80
56729;DHT22;42612;52.232;7.560;2023-04-29T03:30:05;14.60;62.90
56729;DHT22;42612;52.232;7.560;2023-04-29T03:32:31;14.50;62.90
56729;DHT22;42612;52.232;7.560;2023-04-29T03:34:57;14.50;63.00
56729;DHT22;42612;52.232;7.560;2023-04-29T03:37:23;14.50;63.20
56729;DHT22;42612;52.232;7.560;2023-04-29T03:39:48;14.40;63.30
56729;DHT22;42612;52.232;7.560;2023-04-29T03:42:14;14.40;63.40
56729;DHT22;42612;52.232;7.560;2023-04-29T03:44:40;14.30;63.40
56729;DHT22;42612;52.232;7.560;2023-04-29T03:47:05;14.30;63.50
56729;DHT22;42612;52.232;7.560;2023-04-29T03:49:32;14.30;63.50
56729;DHT22;42612;52.232;7.560;2023-04-29T03:51:57;14.30;63.60
56729;DHT22;42612;52.232;7.560;2023-04-29T03:54:23;14.30;63.50
56729;DHT22;42612;52.232;7.560;2023-04-29T03:56:49;14.30;63.50
56729;DHT22;42612;52.232;7.560;2023-04-29T03:59:15;14.20;63.60
56729;DHT22;42612;52.232;7.560;2023-04-29T04:01:40;14.20;63.60
56729;DHT22;42612;52.232;7.560;2023-04-29T04:04:06;14.20;63.70
56729;DHT22;42612;52.232;7.560;2023-04-29T04:06:31;14.20;63.80
56729;DHT22;42612;52.232;7.560;2023-04-29T04:08:57;14.20;63.90
56729;DHT22;42612;52.232;7.560;2023-04-29T04:11:23;14.10;63.90
56729;DHT22;42612;52.232;7.560;2023-04-29T04:13:48;14.10;63.90
56729;DHT22;42612;52.232;7.560;2023-04-29T04:16:14;14.10;64.00
56729;DHT22;42612;52.232;7.560;2023-04-29T04:18:41;14.10;64.20
56729;DHT22;42612;52.232;7.560;2023-04-29T04:21:08;14.00;64.20
56729;DHT22;42612;52.232;7.560;2023-04-29T04:23:34;14.00;64.40
56729;DHT22;42612;52.232;7.560;2023-04-29T04:26:00;14.00;64.90
56729;DHT22;42612;52.232;7.560;2023-04-29T04:28:26;14.00;64.10
56729;DHT22;42612;52.232;7.560;2023-04-29T04:30:52;14.00;64.30
56729;DHT22;42612;52.232;7.560;2023-04-29T04:33:17;14.00;64.40
56729;DHT22;42612;52.232;7.560;2023-04-29T04:35:43;14.00;64.50
56729;DHT22;42612;52.232;7.560;2023-04-29T04:38:09;14.00;64.60
56729;DHT22;42612;52.232;7.560;2023-04-29T04:40:41;14.00;64.60
56729;DHT22;42612;52.232;7.560;2023-04-29T04:43:07;14.00;64.90
56729;DHT22;42612;52.232;7.560;2023-04-29T04:45:33;14.00;64.80
56729;DHT22;42612;52.232;7.560;2023-04-29T04:47:58;14.00;64.80
56729;DHT22;42612;52.232;7.560;2023-04-29T04:50:27;14.00;64.80
56729;DHT22;42612;52.232;7.560;2023-04-29T04:52:54;14.00;64.80
56729;DHT22;42612;52.232;7.560;2023-04-29T04:55:21;14.10;64.80
56729;DHT22;42612;52.232;7.560;2023-04-29T04:57:47;14.10;64.70
56729;DHT22;42612;52.232;7.560;2023-04-29T05:00:13;14.00;64.80
56729;DHT22;42612;52.232;7.560;2023-04-29T05:02:39;14.10;65.50
56729;DHT22;42612;52.232;7.560;2023-04-29T05:05:05;14.00;64.80
56729;DHT22;42612;52.232;7.560;2023-04-29T05:07:31;14.00;64.80
56729;DHT22;42612;52.232;7.560;2023-04-29T05:10:03;14.00;64.80
56729;DHT22;42612;52.232;7.560;2023-04-29T05:12:29;14.00;64.70
56729;DHT22;42612;52.232;7.560;2023-04-29T05:14:59;14.00;64.70
56729;DHT22;42612;52.232;7.560;2023-04-29T05:17:25;14.00;64.80
56729;DHT22;42612;52.232;7.560;2023-04-29T05:19:51;14.00;64.80
56729;DHT22;42612;52.232;7.560;2023-04-29T05:22:17;14.00;64.80
56729;DHT22;42612;52.232;7.560;2023-04-29T05:24:43;14.00;64.90
56729;DHT22;42612;52.232;7.560;2023-04-29T05:27:08;13.90;64.80
56729;DHT22;42612;52.232;7.560;2023-04-29T05:29:34;13.90;64.90
56729;DHT22;42612;52.232;7.560;2023-04-29T05:32:00;13.90;64.90
56729;DHT22;42612;52.232;7.560;2023-04-29T05:34:25;13.80;64.80
56729;DHT22;42612;52.232;7.560;2023-04-29T05:36:51;13.80;64.80
56729;DHT22;42612;52.232;7.560;2023-04-29T05:39:17;13.80;64.90
56729;DHT22;42612;52.232;7.560;2023-04-29T05:41:43;13.70;64.90
56729;DHT22;42612;52.232;7.560;2023-04-29T05:44:09;13.70;65.10
56729;DHT22;42612;52.232;7.560;2023-04-29T05:46:35;13.70;65.20
56729;DHT22;42612;52.232;7.560;2023-04-29T05:49:01;13.60;65.20
56729;DHT22;42612;52.232;7.560;2023-04-29T05:51:26;13.70;65.40
56729;DHT22;42612;52.232;7.560;2023-04-29T05:53:53;13.70;65.40
56729;DHT22;42612;52.232;7.560;2023-04-29T05:56:19;13.60;65.30
56729;DHT22;42612;52.232;7.560;2023-04-29T05:58:45;13.60;65.30
56729;DHT22;42612;52.232;7.560;2023-04-29T06:01:10;13.60;65.40
56729;DHT22;42612;52.232;7.560;2023-04-29T06:03:36;13.60;65.40
56729;DHT22;42612;52.232;7.560;2023-04-29T06:06:02;13.50;65.40
56729;DHT22;42612;52.232;7.560;2023-04-29T06:08:28;13.50;65.40
56729;DHT22;42612;52.232;7.560;2023-04-29T06:10:54;13.60;65.50
56729;DHT22;42612;52.232;7.560;2023-04-29T06:13:20;13.60;65.40
56729;DHT22;42612;52.232;7.560;2023-04-29T06:15:46;13.60;65.50
56729;DHT22;42612;52.232;7.560;2023-04-29T06:18:12;13.60;65.50
56729;DHT22;42612;52.232;7.560;2023-04-29T06:20:37;13.50;65.50
56729;DHT22;42612;52.232;7.560;2023-04-29T06:23:03;13.50;65.50
56729;DHT22;42612;52.232;7.560;2023-04-29T06:25:29;13.50;65.40
56729;DHT22;42612;52.232;7.560;2023-04-29T06:27:58;13.50;65.20
56729;DHT22;42612;52.232;7.560;2023-04-29T06:30:25;13.50;65.30
56729;DHT22;42612;52.232;7.560;2023-04-29T06:32:51;13.50;65.30
56729;DHT22;42612;52.232;7.560;2023-04-29T06:35:17;13.40;65.10
56729;DHT22;42612;52.232;7.560;2023-04-29T06:37:43;13.40;65.30
56729;DHT22;42612;52.232;7.560;2023-04-29T06:40:09;13.50;65.40
56729;DHT22;42612;52.232;7.560;2023-04-29T06:42:35;13.40;65.40
56729;DHT22;42612;52.232;7.560;2023-04-29T06:45:01;13.40;65.40
56729;DHT22;42612;52.232;7.560;2023-04-29T06:47:27;13.40;65.40
56729;DHT22;42612;52.232;7.560;2023-04-29T06:49:54;13.40;65.50
56729;DHT22;42612;52.232;7.560;2023-04-29T06:52:20;13.30;65.60
56729;DHT22;42612;52.232;7.560;2023-04-29T06:54:46;13.30;65.70
56729;DHT22;42612;52.232;7.560;2023-04-29T06:57:11;13.30;65.80
56729;DHT22;42612;52.232;7.560;2023-04-29T06:59:37;13.30;65.80
56729;DHT22;42612;52.232;7.560;2023-04-29T07:02:03;13.40;65.80
56729;DHT22;42612;52.232;7.560;2023-04-29T07:04:28;13.40;65.80
56729;DHT22;42612;52.232;7.560;2023-04-29T07:06:55;13.40;65.70
56729;DHT22;42612;52.232;7.560;2023-04-29T07:09:20;13.40;65.70
56729;DHT22;42612;52.232;7.560;2023-04-29T07:11:48;13.40;65.80
56729;DHT22;42612;52.232;7.560;2023-04-29T07:14:13;13.50;65.80
56729;DHT22;42612;52.232;7.560;2023-04-29T07:16:39;13.50;65.80
56729;DHT22;42612;52.232;7.560;2023-04-29T07:19:05;13.50;65.70
56729;DHT22;42612;52.232;7.560;2023-04-29T07:21:30;13.60;65.70
56729;DHT22;42612;52.232;7.560;2023-04-29T07:23:56;13.60;65.50
56729;DHT22;42612;52.232;7.560;2023-04-29T07:26:25;13.60;65.30
56729;DHT22;42612;52.232;7.560;2023-04-29T07:28:50;13.60;65.20
56729;DHT22;42612;52.232;7.560;2023-04-29T07:31:16;13.60;65.20
56729;DHT22;42612;52.232;7.560;2023-04-29T07:33:43;13.60;65.10
56729;DHT22;42612;52.232;7.560;2023-04-29T07:36:10;13.70;65.20
56729;DHT22;42612;52.232;7.560;2023-04-29T07:38:35;13.70;65.40
56729;DHT22;42612;52.232;7.560;2023-04-29T07:41:01;13.70;65.00
56729;DHT22;42612;52.232;7.560;2023-04-29T07:43:29;13.80;65.00
56729;DHT22;42612;52.232;7.560;2023-04-29T07:45:54;13.70;64.90
56729;DHT22;42612;52.232;7.560;2023-04-29T07:48:20;13.80;65.00
56729;DHT22;42612;52.232;7.560;2023-04-29T07:50:46;13.80;65.00
56729;DHT22;42612;52.232;7.560;2023-04-29T07:53:12;13.80;64.90
56729;DHT22;42612;52.232;7.560;2023-04-29T07:55:38;13.80;65.00
56729;DHT22;42612;52.232;7.560;2023-04-29T07:58:03;13.80;64.90
56729;DHT22;42612;52.232;7.560;2023-04-29T08:00:29;13.90;64.90
56729;DHT22;42612;52.232;7.560;2023-04-29T08:02:56;13.90;64.80
56729;DHT22;42612;52.232;7.560;2023-04-29T08:05:22;13.90;64.60
56729;DHT22;42612;52.232;7.560;2023-04-29T08:07:48;13.90;64.50
56729;DHT22;42612;52.232;7.560;2023-04-29T08:10:15;13.90;64.70
56729;DHT22;42612;52.232;7.560;2023-04-29T08:12:45;14.00;64.80
56729;DHT22;42612;52.232;7.560;2023-04-29T08:15:11;14.00;64.70
56729;DHT22;42612;52.232;7.560;2023-04-29T08:17:36;14.00;64.80
56729;DHT22;42612;52.232;7.560;2023-04-29T08:20:03;14.10;65.00
56729;DHT22;42612;52.232;7.560;2023-04-29T08:22:29;14.10;65.10
56729;DHT22;42612;52.232;7.560;2023-04-29T08:24:54;14.20;65.10
56729;DHT22;42612;52.232;7.560;2023-04-29T08:27:20;14.20;64.90
56729;DHT22;42612;52.232;7.560;2023-04-29T08:29:46;14.20;64.70
56729;DHT22;42612;52.232;7.560;2023-04-29T08:32:12;14.30;64.80
56729;DHT22;42612;52.232;7.560;2023-04-29T08:34:37;14.30;64.80
56729;DHT22;42612;52.232;7.560;2023-04-29T08:37:03;14.30;64.70
56729;DHT22;42612;52.232;7.560;2023-04-29T08:39:29;14.30;64.70
56729;DHT22;42612;52.232;7.560;2023-04-29T08:41:56;14.40;64.70
56729;DHT22;42612;52.232;7.560;2023-04-29T08:44:25;14.40;64.70
56729;DHT22;42612;52.232;7.560;2023-04-29T08:46:52;14.40;64.70
56729;DHT22;42612;52.232;7.560;2023-04-29T08:49:17;14.50;64.60
56729;DHT22;42612;52.232;7.560;2023-04-29T08:51:43;14.50;64.50
56729;DHT22;42612;52.232;7.560;2023-04-29T08:54:10;14.50;64.60
56729;DHT22;42612;52.232;7.560;2023-04-29T08:56:36;14.60;64.40
56729;DHT22;42612;52.232;7.560;2023-04-29T08:59:03;14.60;64.30
56729;DHT22;42612;52.232;7.560;2023-04-29T09:01:31;14.60;64.20
56729;DHT22;42612;52.232;7.560;2023-04-29T09:06:58;14.70;64.10
56729;DHT22;42612;52.232;7.560;2023-04-29T09:09:24;14.80;63.80
56729;DHT22;42612;52.232;7.560;2023-04-29T09:11:50;14.80;63.70
56729;DHT22;42612;52.232;7.560;2023-04-29T09:14:18;14.80;63.60
56729;DHT22;42612;52.232;7.560;2023-04-29T09:16:46;14.90;63.60
56729;DHT22;42612;52.232;7.560;2023-04-29T09:19:28;14.90;63.90
56729;DHT22;42612;52.232;7.560;2023-04-29T09:21:56;15.00;63.90
56729;DHT22;42612;52.232;7.560;2023-04-29T09:24:26;15.00;63.60
56729;DHT22;42612;52.232;7.560;2023-04-29T09:26:53;15.10;63.70
56729;DHT22;42612;52.232;7.560;2023-04-29T09:29:20;15.10;63.80
56729;DHT22;42612;52.232;7.560;2023-04-29T09:31:47;15.20;63.60
56729;DHT22;42612;52.232;7.560;2023-04-29T09:34:14;15.20;63.50
56729;DHT22;42612;52.232;7.560;2023-04-29T09:36:49;15.30;63.40
56729;DHT22;42612;52.232;7.560;2023-04-29T09:39:20;15.30;63.10
56729;DHT22;42612;52.232;7.560;2023-04-29T09:46:54;15.50;62.70
56729;DHT22;42612;52.232;7.560;2023-04-29T09:49:30;15.60;63.00
56729;DHT22;42612;52.232;7.560;2023-04-29T09:52:16;15.60;63.00
56729;DHT22;42612;52.232;7.560;2023-04-29T09:54:43;15.70;62.60
56729;DHT22;42612;52.232;7.560;2023-04-29T09:57:10;15.70;62.50
56729;DHT22;42612;52.232;7.560;2023-04-29T09:59:40;15.80;62.20
56729;DHT22;42612;52.232;7.560;2023-04-29T10:02:15;15.80;62.00
56729;DHT22;42612;52.232;7.560;2023-04-29T10:04:48;15.90;61.30
56729;DHT22;42612;52.232;7.560;2023-04-29T10:07:18;15.90;61.30
56729;DHT22;42612;52.232;7.560;2023-04-29T10:09:45;16.00;61.30
56729;DHT22;42612;52.232;7.560;2023-04-29T10:12:15;16.00;61.10
56729;DHT22;42612;52.232;7.560;2023-04-29T10:14:47;16.00;61.00
56729;DHT22;42612;52.232;7.560;2023-04-29T10:18:20;16.00;60.80
56729;DHT22;42612;52.232;7.560;2023-04-29T10:20:24;16.10;60.30
56729;DHT22;42612;52.232;7.560;2023-04-29T10:22:52;16.10;61.50
56729;DHT22;42612;52.232;7.560;2023-04-29T10:25:20;16.20;61.20
56729;DHT22;42612;52.232;7.560;2023-04-29T10:27:49;16.30;61.10
56729;DHT22;42612;52.232;7.560;2023-04-29T10:30:19;16.40;60.80
56729;DHT22;42612;52.232;7.560;2023-04-29T10:32:46;16.50;60.80
56729;DHT22;42612;52.232;7.560;2023-04-29T10:35:15;16.50;60.60
56729;DHT22;42612;52.232;7.560;2023-04-29T10:37:44;16.60;61.30
56729;DHT22;42612;52.232;7.560;2023-04-29T10:40:22;16.70;60.70
56729;DHT22;42612;52.232;7.560;2023-04-29T10:43:03;16.70;59.90
56729;DHT22;42612;52.232;7.560;2023-04-29T10:45:30;16.80;60.50
56729;DHT22;42612;52.232;7.560;2023-04-29T10:50:32;17.00;60.00
56729;DHT22;42612;52.232;7.560;2023-04-29T10:53:02;17.10;59.70
56729;DHT22;42612;52.232;7.560;2023-04-29T10:55:29;17.10;58.60
56729;DHT22;42612;52.232;7.560;2023-04-29T10:57:55;17.10;58.70
56729;DHT22;42612;52.232;7.560;2023-04-29T11:00:25;17.10;58.60
56729;DHT22;42612;52.232;7.560;2023-04-29T11:02:53;17.10;58.70
56729;DHT22;42612;52.232;7.560;2023-04-29T11:05:39;17.20;58.80
56729;DHT22;42612;52.232;7.560;2023-04-29T11:10:41;17.20;57.50
56729;DHT22;42612;52.232;7.560;2023-04-29T11:13:22;17.20;57.60
56729;DHT22;42612;52.232;7.560;2023-04-29T11:15:53;17.10;57.00
56729;DHT22;42612;52.232;7.560;2023-04-29T11:19:03;17.10;57.70
56729;DHT22;42612;52.232;7.560;2023-04-29T11:21:30;17.10;56.30
56729;DHT22;42612;52.232;7.560;2023-04-29T11:23:57;17.10;57.20
56729;DHT22;42612;52.232;7.560;2023-04-29T11:26:23;17.00;57.10
56729;DHT22;42612;52.232;7.560;2023-04-29T11:28:50;16.90;57.10
56729;DHT22;42612;52.232;7.560;2023-04-29T11:31:19;16.90;57.00
56729;DHT22;42612;52.232;7.560;2023-04-29T11:33:45;16.80;57.10
56729;DHT22;42612;52.232;7.560;2023-04-29T11:36:11;16.80;57.30
56729;DHT22;42612;52.232;7.560;2023-04-29T11:38:39;16.80;57.80
56729;DHT22;42612;52.232;7.560;2023-04-29T11:41:09;16.80;58.00
56729;DHT22;42612;52.232;7.560;2023-04-29T11:43:35;16.90;58.50
56729;DHT22;42612;52.232;7.560;2023-04-29T11:46:13;17.00;58.50
56729;DHT22;42612;52.232;7.560;2023-04-29T11:48:46;17.20;57.70
56729;DHT22;42612;52.232;7.560;2023-04-29T11:51:16;17.30;57.00
56729;DHT22;42612;52.232;7.560;2023-04-29T11:53:44;17.40;57.20
56729;DHT22;42612;52.232;7.560;2023-04-29T11:56:10;17.50;56.60
56729;DHT22;42612;52.232;7.560;2023-04-29T11:58:36;17.60;56.30
56729;DHT22;42612;52.232;7.560;2023-04-29T12:01:03;17.60;55.80
56729;DHT22;42612;52.232;7.560;2023-04-29T12:03:31;17.60;55.60
56729;DHT22;42612;52.232;7.560;2023-04-29T12:05:58;17.60;55.10
56729;DHT22;42612;52.232;7.560;2023-04-29T12:08:25;17.60;55.00
56729;DHT22;42612;52.232;7.560;2023-04-29T12:10:55;17.60;54.70
56729;DHT22;42612;52.232;7.560;2023-04-29T12:13:26;17.60;54.70
56729;DHT22;42612;52.232;7.560;2023-04-29T12:15:53;17.60;55.00
56729;DHT22;42612;52.232;7.560;2023-04-29T12:18:20;17.60;55.20
56729;DHT22;42612;52.232;7.560;2023-04-29T12:20:47;17.50;54.60
56729;DHT22;42612;52.232;7.560;2023-04-29T12:23:25;17.50;54.40
56729;DHT22;42612;52.232;7.560;2023-04-29T12:25:54;17.50;54.60
56729;DHT22;42612;52.232;7.560;2023-04-29T12:28:21;17.50;55.30
56729;DHT22;42612;52.232;7.560;2023-04-29T12:30:49;17.50;55.60
56729;DHT22;42612;52.232;7.560;2023-04-29T12:33:21;17.50;55.30
56729;DHT22;42612;52.232;7.560;2023-04-29T12:35:52;17.50;54.20
56729;DHT22;42612;52.232;7.560;2023-04-29T12:38:21;17.50;54.80
56729;DHT22;42612;52.232;7.560;2023-04-29T12:40:54;17.50;54.50
56729;DHT22;42612;52.232;7.560;2023-04-29T12:43:31;17.50;54.50
56729;DHT22;42612;52.232;7.560;2023-04-29T12:46:08;17.50;53.20
56729;DHT22;42612;52.232;7.560;2023-04-29T12:48:36;17.60;53.60
56729;DHT22;42612;52.232;7.560;2023-04-29T12:51:08;17.60;54.00
56729;DHT22;42612;52.232;7.560;2023-04-29T12:53:34;17.60;53.90
56729;DHT22;42612;52.232;7.560;2023-04-29T12:56:00;17.60;53.90
56729;DHT22;42612;52.232;7.560;2023-04-29T12:58:29;17.70;53.90
56729;DHT22;42612;52.232;7.560;2023-04-29T13:00:55;17.70;53.60
56729;DHT22;42612;52.232;7.560;2023-04-29T13:03:21;17.80;54.00
56729;DHT22;42612;52.232;7.560;2023-04-29T13:05:48;17.90;53.90
56729;DHT22;42612;52.232;7.560;2023-04-29T13:08:17;17.90;53.80
56729;DHT22;42612;52.232;7.560;2023-04-29T13:10:43;18.00;53.60
56729;DHT22;42612;52.232;7.560;2023-04-29T13:13:08;18.10;53.60
56729;DHT22;42612;52.232;7.560;2023-04-29T13:15:35;18.20;53.50
56729;DHT22;42612;52.232;7.560;2023-04-29T13:18:02;18.40;53.70
56729;DHT22;42612;52.232;7.560;2023-04-29T13:20:28;18.50;53.70
56729;DHT22;42612;52.232;7.560;2023-04-29T13:22:54;18.60;53.80
56729;DHT22;42612;52.232;7.560;2023-04-29T13:25:20;18.80;53.90
56729;DHT22;42612;52.232;7.560;2023-04-29T13:27:46;18.90;54.00
56729;DHT22;42612;52.232;7.560;2023-04-29T13:30:11;19.00;53.90
56729;DHT22;42612;52.232;7.560;2023-04-29T13:32:37;19.20;53.70
56729;DHT22;42612;52.232;7.560;2023-04-29T13:35:05;19.30;53.10
56729;DHT22;42612;52.232;7.560;2023-04-29T13:37:32;19.50;52.60
56729;DHT22;42612;52.232;7.560;2023-04-29T13:39:58;19.60;53.20
56729;DHT22;42612;52.232;7.560;2023-04-29T13:42:24;19.70;52.00
56729;DHT22;42612;52.232;7.560;2023-04-29T13:44:50;19.80;51.30
56729;DHT22;42612;52.232;7.560;2023-04-29T13:47:16;19.80;50.50
56729;DHT22;42612;52.232;7.560;2023-04-29T13:49:42;19.70;50.10
56729;DHT22;42612;52.232;7.560;2023-04-29T13:52:11;19.70;49.80
56729;DHT22;42612;52.232;7.560;2023-04-29T13:54:37;19.70;49.80
56729;DHT22;42612;52.232;7.560;2023-04-29T13:57:03;19.60;49.60
56729;DHT22;42612;52.232;7.560;2023-04-29T13:59:34;19.50;49.50
56729;DHT22;42612;52.232;7.560;2023-04-29T14:02:01;19.50;49.70
56729;DHT22;42612;52.232;7.560;2023-04-29T14:04:27;19.50;50.40
56729;DHT22;42612;52.232;7.560;2023-04-29T14:06:54;19.50;50.30
56729;DHT22;42612;52.232;7.560;2023-04-29T14:09:21;19.60;50.30
56729;DHT22;42612;52.232;7.560;2023-04-29T14:11:47;19.70;51.10
56729;DHT22;42612;52.232;7.560;2023-04-29T14:14:14;19.80;51.00
56729;DHT22;42612;52.232;7.560;2023-04-29T14:16:41;19.90;50.70
56729;DHT22;42612;52.232;7.560;2023-04-29T14:19:07;20.00;50.60
56729;DHT22;42612;52.232;7.560;2023-04-29T14:21:33;20.20;50.80
56729;DHT22;42612;52.232;7.560;2023-04-29T14:24:00;20.20;50.00
56729;DHT22;42612;52.232;7.560;2023-04-29T14:26:29;20.40;49.40
56729;DHT22;42612;52.232;7.560;2023-04-29T14:28:56;20.40;49.80
56729;DHT22;42612;52.232;7.560;2023-04-29T14:31:26;20.40;49.70
56729;DHT22;42612;52.232;7.560;2023-04-29T14:33:53;20.50;49.40
56729;DHT22;42612;52.232;7.560;2023-04-29T14:36:20;20.50;49.90
56729;DHT22;42612;52.232;7.560;2023-04-29T14:38:45;20.60;49.90
56729;DHT22;42612;52.232;7.560;2023-04-29T14:41:11;20.70;49.70
56729;DHT22;42612;52.232;7.560;2023-04-29T14:43:37;20.70;49.50
56729;DHT22;42612;52.232;7.560;2023-04-29T14:46:04;20.80;48.90
56729;DHT22;42612;52.232;7.560;2023-04-29T14:48:30;20.80;48.60
56729;DHT22;42612;52.232;7.560;2023-04-29T14:50:56;20.80;48.30
56729;DHT22;42612;52.232;7.560;2023-04-29T14:53:22;20.70;48.10
56729;DHT22;42612;52.232;7.560;2023-04-29T14:55:51;20.60;48.10
56729;DHT22;42612;52.232;7.560;2023-04-29T14:58:16;20.50;47.30
56729;DHT22;42612;52.232;7.560;2023-04-29T15:00:42;20.40;47.30
56729;DHT22;42612;52.232;7.560;2023-04-29T15:03:08;20.30;47.10
56729;DHT22;42612;52.232;7.560;2023-04-29T15:05:34;20.20;47.20
56729;DHT22;42612;52.232;7.560;2023-04-29T15:08:00;20.00;47.10
56729;DHT22;42612;52.232;7.560;2023-04-29T15:10:29;19.90;47.30
56729;DHT22;42612;52.232;7.560;2023-04-29T15:12:55;19.90;47.00
56729;DHT22;42612;52.232;7.560;2023-04-29T15:15:22;19.70;46.90
56729;DHT22;42612;52.232;7.560;2023-04-29T15:17:48;19.60;46.80
56729;DHT22;42612;52.232;7.560;2023-04-29T15:20:14;19.50;47.10
56729;DHT22;42612;52.232;7.560;2023-04-29T15:22:40;19.40;47.00
56729;DHT22;42612;52.232;7.560;2023-04-29T15:25:06;19.20;47.20
56729;DHT22;42612;52.232;7.560;2023-04-29T15:27:33;19.10;47.30
56729;DHT22;42612;52.232;7.560;2023-04-29T15:30:00;19.10;47.20
56729;DHT22;42612;52.232;7.560;2023-04-29T15:32:27;19.00;47.20
56729;DHT22;42612;52.232;7.560;2023-04-29T15:35:00;19.00;47.60
56729;DHT22;42612;52.232;7.560;2023-04-29T15:37:27;18.90;47.20
56729;DHT22;42612;52.232;7.560;2023-04-29T15:40:00;18.90;47.20
56729;DHT22;42612;52.232;7.560;2023-04-29T15:42:26;18.90;47.00
56729;DHT22;42612;52.232;7.560;2023-04-29T15:44:52;18.90;48.10
56729;DHT22;42612;52.232;7.560;2023-04-29T15:47:18;19.00;47.80
56729;DHT22;42612;52.232;7.560;2023-04-29T15:49:44;19.10;47.80
56729;DHT22;42612;52.232;7.560;2023-04-29T15:52:10;19.20;47.50
56729;DHT22;42612;52.232;7.560;2023-04-29T15:54:36;19.30;47.10
56729;DHT22;42612;52.232;7.560;2023-04-29T15:57:01;19.40;46.90